createdAt,value
2018-07-16T00:00:40.429Z,1006.29
2018-07-16T00:02:33.407Z,1006.25
2018-07-16T00:03:33.364Z,1006.27
2018-07-16T00:05:26.352Z,1006.25
2018-07-16T00:06:26.309Z,1006.20
2018-07-16T00:08:19.335Z,1006.23
2018-07-16T00:09:19.296Z,1006.19
2018-07-16T00:11:12.128Z,1006.22
2018-07-16T00:12:12.080Z,1006.19
2018-07-16T00:14:05.122Z,1006.18
2018-07-16T00:15:05.111Z,1006.18
2018-07-16T00:16:58.016Z,1006.17
2018-07-16T00:17:57.952Z,1006.15
2018-07-16T00:19:50.924Z,1006.15
2018-07-16T00:20:50.904Z,1006.13
2018-07-16T00:22:43.885Z,1006.12
2018-07-16T00:23:43.844Z,1006.10
2018-07-16T00:25:36.991Z,1006.13
2018-07-16T00:26:36.940Z,1006.08
2018-07-16T00:28:29.939Z,1006.07
2018-07-16T00:29:29.876Z,1006.06
2018-07-16T00:31:22.856Z,1006.03
2018-07-16T00:32:22.821Z,1006.01
2018-07-16T00:34:15.905Z,1005.98
2018-07-16T00:35:15.860Z,1005.96
2018-07-16T00:37:08.840Z,1006.00
2018-07-16T00:38:08.798Z,1005.97
2018-07-16T00:40:01.652Z,1006.01
2018-07-16T00:41:01.605Z,1006.01
2018-07-16T00:42:54.450Z,1006.01
2018-07-16T00:43:54.406Z,1005.98
2018-07-16T00:45:47.381Z,1005.97
2018-07-16T00:46:47.197Z,1005.96
2018-07-16T00:48:40.178Z,1005.98
2018-07-16T00:49:40.141Z,1005.95
2018-07-16T00:51:33.122Z,1005.91
2018-07-16T00:52:33.091Z,1005.88
2018-07-16T00:54:26.005Z,1005.85
2018-07-16T00:55:25.952Z,1005.85
2018-07-16T00:57:18.925Z,1005.83
2018-07-16T00:58:18.895Z,1005.81
2018-07-16T01:00:11.886Z,1005.82
2018-07-16T01:01:11.841Z,1005.79
2018-07-16T01:03:04.673Z,1005.81
2018-07-16T01:04:04.621Z,1005.80
2018-07-16T01:05:57.454Z,1005.83
2018-07-16T01:06:57.427Z,1005.80
2018-07-16T01:08:50.428Z,1005.81
2018-07-16T01:09:50.372Z,1005.77
2018-07-16T01:11:43.353Z,1005.77
2018-07-16T01:12:43.318Z,1005.75
2018-07-16T01:14:36.513Z,1005.75
2018-07-16T01:15:36.419Z,1005.69
2018-07-16T01:17:29.403Z,1005.70
2018-07-16T01:18:29.376Z,1005.67
2018-07-16T01:20:22.805Z,1005.72
2018-07-16T01:21:22.666Z,1005.69
2018-07-16T01:23:15.466Z,1005.72
2018-07-16T01:24:15.427Z,1005.74
2018-07-16T01:26:08.417Z,1005.68
2018-07-16T01:27:08.376Z,1005.68
2018-07-16T01:29:01.602Z,1005.69
2018-07-16T01:30:01.471Z,1005.71
2018-07-16T01:31:54.466Z,1005.68
2018-07-16T01:32:54.426Z,1005.68
2018-07-16T01:34:47.407Z,1005.67
2018-07-16T01:35:47.358Z,1005.64
2018-07-16T01:37:40.487Z,1005.62
2018-07-16T01:38:40.451Z,1005.68
2018-07-16T01:40:33.441Z,1005.64
2018-07-16T01:41:33.395Z,1005.61
2018-07-16T01:43:26.208Z,1005.64
2018-07-16T01:44:26.171Z,1005.64
2018-07-16T01:46:19.402Z,1005.65
2018-07-16T01:47:19.278Z,1005.62
2018-07-16T01:49:12.252Z,1005.61
2018-07-16T01:50:12.233Z,1005.60
2018-07-16T01:52:05.226Z,1005.60
2018-07-16T01:53:05.172Z,1005.61
2018-07-16T01:54:58.048Z,1005.63
2018-07-16T01:55:57.984Z,1005.62
2018-07-16T01:57:50.971Z,1005.64
2018-07-16T01:58:50.929Z,1005.64
2018-07-16T02:00:43.758Z,1005.61
2018-07-16T02:01:43.703Z,1005.56
2018-07-16T02:03:36.678Z,1005.57
2018-07-16T02:04:36.649Z,1005.56
2018-07-16T02:06:29.728Z,1005.56
2018-07-16T02:07:29.668Z,1005.57
2018-07-16T02:09:22.503Z,1005.54
2018-07-16T02:10:22.473Z,1005.57
2018-07-16T02:12:15.315Z,1005.53
2018-07-16T02:13:15.259Z,1005.54
2018-07-16T02:15:08.294Z,1005.49
2018-07-16T02:16:08.261Z,1005.48
2018-07-16T02:18:01.275Z,1005.50
2018-07-16T02:19:01.201Z,1005.50
2018-07-16T02:20:54.175Z,1005.51
2018-07-16T02:21:54.217Z,1005.51
2018-07-16T02:23:47.419Z,1005.50
2018-07-16T02:24:47.240Z,1005.47
2018-07-16T02:26:40.213Z,1005.49
2018-07-16T02:27:40.170Z,1005.48
2018-07-16T02:29:33.169Z,1005.48
2018-07-16T02:30:33.112Z,1005.47
2018-07-16T02:32:26.275Z,1005.50
2018-07-16T02:33:26.189Z,1005.52
2018-07-16T02:35:19.180Z,1005.52
2018-07-16T02:36:19.129Z,1005.51
2018-07-16T02:38:12.123Z,1005.48
2018-07-16T02:39:12.080Z,1005.48
2018-07-16T02:41:05.140Z,1005.47
2018-07-16T02:42:05.071Z,1005.45
2018-07-16T02:43:58.036Z,1005.44
2018-07-16T02:44:58.009Z,1005.44
2018-07-16T02:46:50.996Z,1005.45
2018-07-16T02:47:50.949Z,1005.47
2018-07-16T02:49:43.986Z,1005.48
2018-07-16T02:50:43.932Z,1005.49
2018-07-16T02:52:36.897Z,1005.49
2018-07-16T02:53:36.862Z,1005.47
2018-07-16T02:55:29.856Z,1005.46
2018-07-16T02:56:29.874Z,1005.47
2018-07-16T02:58:22.611Z,1005.49
2018-07-16T02:59:22.571Z,1005.47
2018-07-16T03:01:15.420Z,1005.48
2018-07-16T03:02:15.370Z,1005.47
2018-07-16T03:04:08.330Z,1005.46
2018-07-16T03:05:08.287Z,1005.45
2018-07-16T03:07:01.276Z,1005.42
2018-07-16T03:08:01.227Z,1005.39
2018-07-16T03:09:54.554Z,1005.45
2018-07-16T03:10:54.498Z,1005.47
2018-07-16T03:12:47.481Z,1005.46
2018-07-16T03:13:47.435Z,1005.48
2018-07-16T03:15:40.370Z,1005.48
2018-07-16T03:16:40.319Z,1005.50
2018-07-16T03:18:33.288Z,1005.50
2018-07-16T03:19:33.261Z,1005.53
2018-07-16T03:21:26.256Z,1005.54
2018-07-16T03:22:26.199Z,1005.57
2018-07-16T03:24:19.462Z,1005.52
2018-07-16T03:25:19.424Z,1005.53
2018-07-16T03:27:12.428Z,1005.52
2018-07-16T03:28:12.450Z,1005.50
2018-07-16T03:30:05.606Z,1005.48
2018-07-16T03:31:05.438Z,1005.51
2018-07-16T03:32:58.247Z,1005.55
2018-07-16T03:33:58.218Z,1005.58
2018-07-16T03:35:51.205Z,1005.58
2018-07-16T03:36:51.159Z,1005.58
2018-07-16T03:38:44.159Z,1005.58
2018-07-16T03:39:44.102Z,1005.57
2018-07-16T03:41:36.958Z,1005.57
2018-07-16T03:42:36.908Z,1005.59
2018-07-16T03:44:29.872Z,1005.61
2018-07-16T03:45:29.843Z,1005.61
2018-07-16T03:47:22.819Z,1005.54
2018-07-16T03:48:22.769Z,1005.57
2018-07-16T03:50:15.909Z,1005.60
2018-07-16T03:51:15.848Z,1005.62
2018-07-16T03:53:08.887Z,1005.61
2018-07-16T03:54:08.824Z,1005.63
2018-07-16T03:56:01.825Z,1005.61
2018-07-16T03:57:01.776Z,1005.58
2018-07-16T03:58:54.818Z,1005.56
2018-07-16T03:59:54.718Z,1005.54
2018-07-16T04:01:47.711Z,1005.56
2018-07-16T04:02:47.673Z,1005.57
2018-07-16T04:04:40.659Z,1005.59
2018-07-16T04:05:40.616Z,1005.58
2018-07-16T04:07:33.440Z,1005.57
2018-07-16T04:08:33.390Z,1005.61
2018-07-16T04:10:26.384Z,1005.59
2018-07-16T04:11:26.344Z,1005.57
2018-07-16T04:13:19.385Z,1005.56
2018-07-16T04:14:19.345Z,1005.58
2018-07-16T04:16:12.508Z,1005.59
2018-07-16T04:17:12.423Z,1005.58
2018-07-16T04:19:05.430Z,1005.59
2018-07-16T04:20:05.365Z,1005.60
2018-07-16T04:21:58.193Z,1005.61
2018-07-16T04:22:58.210Z,1005.60
2018-07-16T04:24:51.308Z,1005.62
2018-07-16T04:25:51.235Z,1005.62
2018-07-16T04:27:44.201Z,1005.62
2018-07-16T04:28:44.171Z,1005.62
2018-07-16T04:30:37.167Z,1005.64
2018-07-16T04:31:37.107Z,1005.66
2018-07-16T04:33:29.915Z,1005.66
2018-07-16T04:34:29.876Z,1005.66
2018-07-16T04:36:22.890Z,1005.65
2018-07-16T04:37:22.820Z,1005.66
2018-07-16T04:39:15.814Z,1005.61
2018-07-16T04:40:15.769Z,1005.63
2018-07-16T04:42:08.739Z,1005.61
2018-07-16T04:43:08.705Z,1005.59
2018-07-16T04:45:01.557Z,1005.58
2018-07-16T04:46:01.503Z,1005.58
2018-07-16T04:47:54.479Z,1005.50
2018-07-16T04:48:54.439Z,1005.52
2018-07-16T04:50:47.442Z,1005.56
2018-07-16T04:51:47.433Z,1005.51
2018-07-16T04:53:40.571Z,1005.53
2018-07-16T04:54:40.491Z,1005.48
2018-07-16T04:56:33.471Z,1005.51
2018-07-16T04:57:33.427Z,1005.50
2018-07-16T04:59:26.395Z,1005.46
2018-07-16T05:00:26.375Z,1005.47
2018-07-16T05:02:19.201Z,1005.47
2018-07-16T05:03:19.231Z,1005.48
2018-07-16T05:05:12.137Z,1005.45
2018-07-16T05:06:12.084Z,1005.45
2018-07-16T05:08:05.090Z,1005.44
2018-07-16T05:09:05.035Z,1005.46
2018-07-16T05:10:58.191Z,1005.41
2018-07-16T05:11:58.127Z,1005.40
2018-07-16T05:13:51.107Z,1005.38
2018-07-16T05:14:51.078Z,1005.43
2018-07-16T05:16:43.902Z,1005.37
2018-07-16T05:17:43.950Z,1005.43
2018-07-16T05:19:37.116Z,1005.44
2018-07-16T05:20:37.030Z,1005.44
2018-07-16T05:22:29.991Z,1005.39
2018-07-16T05:23:29.947Z,1005.42
2018-07-16T05:25:22.948Z,1005.44
2018-07-16T05:26:22.935Z,1005.45
2018-07-16T05:28:15.740Z,1005.42
2018-07-16T05:29:15.678Z,1005.46
2018-07-16T05:31:08.678Z,1005.43
2018-07-16T05:32:08.794Z,1005.46
2018-07-16T05:34:01.598Z,1005.41
2018-07-16T05:35:01.572Z,1005.43
2018-07-16T05:36:54.701Z,1005.39
2018-07-16T05:37:54.636Z,1005.39
2018-07-16T05:39:47.616Z,1005.36
2018-07-16T05:40:47.580Z,1005.37
2018-07-16T05:42:40.564Z,1005.33
2018-07-16T05:43:40.551Z,1005.34
2018-07-16T05:45:33.688Z,1005.34
2018-07-16T05:46:33.614Z,1005.36
2018-07-16T05:48:26.606Z,1005.35
2018-07-16T05:49:26.548Z,1005.34
2018-07-16T05:51:19.363Z,1005.35
2018-07-16T05:52:19.332Z,1005.33
2018-07-16T05:54:12.568Z,1005.31
2018-07-16T05:55:12.420Z,1005.30
2018-07-16T05:57:05.393Z,1005.30
2018-07-16T05:58:05.376Z,1005.32
2018-07-16T05:59:58.370Z,1005.32
2018-07-16T06:00:58.309Z,1005.36
2018-07-16T06:02:51.159Z,1005.36
2018-07-16T06:03:51.087Z,1005.36
2018-07-16T06:05:44.087Z,1005.42
2018-07-16T06:06:44.040Z,1005.43
2018-07-16T06:08:37.075Z,1005.47
2018-07-16T06:09:36.997Z,1005.48
2018-07-16T06:11:30.128Z,1005.50
2018-07-16T06:12:30.064Z,1005.50
2018-07-16T06:14:23.074Z,1005.53
2018-07-16T06:15:23.001Z,1005.52
2018-07-16T06:17:15.987Z,1005.57
2018-07-16T06:18:15.958Z,1005.56
2018-07-16T06:20:09.108Z,1005.57
2018-07-16T06:21:09.065Z,1005.59
2018-07-16T06:23:02.053Z,1005.55
2018-07-16T06:24:02.039Z,1005.51
2018-07-16T06:25:54.994Z,1005.50
2018-07-16T06:26:54.948Z,1005.47
2018-07-16T06:28:47.775Z,1005.48
2018-07-16T06:29:47.721Z,1005.48
2018-07-16T06:31:40.737Z,1005.44
2018-07-16T06:32:40.706Z,1005.45
2018-07-16T06:34:33.891Z,1005.44
2018-07-16T06:35:33.840Z,1005.46
2018-07-16T06:37:26.687Z,1005.46
2018-07-16T06:38:26.627Z,1005.45
2018-07-16T06:40:19.861Z,1005.41
2018-07-16T06:41:19.980Z,1005.45
2018-07-16T06:43:12.581Z,1005.42
2018-07-16T06:44:12.560Z,1005.43
2018-07-16T06:46:05.961Z,1005.49
2018-07-16T06:47:05.646Z,1005.44
2018-07-16T06:48:58.625Z,1005.46
2018-07-16T06:49:58.581Z,1005.45
2018-07-16T06:51:51.576Z,1005.45
2018-07-16T06:52:51.524Z,1005.48
2018-07-16T06:54:44.596Z,1005.46
2018-07-16T06:55:44.542Z,1005.46
2018-07-16T06:57:37.577Z,1005.45
2018-07-16T06:58:37.535Z,1005.48
2018-07-16T07:00:30.921Z,1005.44
2018-07-16T07:01:30.618Z,1005.44
2018-07-16T07:03:23.612Z,1005.43
2018-07-16T07:04:23.569Z,1005.41
2018-07-16T07:06:16.548Z,1005.42
2018-07-16T07:07:16.518Z,1005.40
2018-07-16T07:09:09.477Z,1005.38
2018-07-16T07:10:09.423Z,1005.37
2018-07-16T07:12:02.422Z,1005.35
2018-07-16T07:13:02.386Z,1005.36
2018-07-16T07:14:55.386Z,1005.35
2018-07-16T07:15:55.336Z,1005.34
2018-07-16T07:17:48.487Z,1005.32
2018-07-16T07:18:48.413Z,1005.31
2018-07-16T07:20:41.411Z,1005.34
2018-07-16T07:21:41.372Z,1005.33
2018-07-16T07:23:34.368Z,1005.34
2018-07-16T07:24:34.315Z,1005.36
2018-07-16T07:26:27.367Z,1005.37
2018-07-16T07:27:27.316Z,1005.36
2018-07-16T07:29:20.317Z,1005.34
2018-07-16T07:30:20.275Z,1005.34
2018-07-16T07:32:13.097Z,1005.30
2018-07-16T07:33:13.052Z,1005.30
2018-07-16T07:35:06.354Z,1005.30
2018-07-16T07:36:06.183Z,1005.34
2018-07-16T07:37:58.980Z,1005.31
2018-07-16T07:38:58.955Z,1005.34
2018-07-16T07:40:51.935Z,1005.33
2018-07-16T07:41:51.903Z,1005.32
2018-07-16T07:43:45.233Z,1005.30
2018-07-16T07:44:45.189Z,1005.29
2018-07-16T07:46:38.173Z,1005.32
2018-07-16T07:47:38.207Z,1005.34
2018-07-16T07:49:31.320Z,1005.29
2018-07-16T07:50:31.282Z,1005.29
2018-07-16T07:52:24.267Z,1005.32
2018-07-16T07:53:24.229Z,1005.30
2018-07-16T07:55:17.985Z,1005.28
2018-07-16T07:56:17.284Z,1005.26
2018-07-16T07:58:10.276Z,1005.27
2018-07-16T07:59:10.251Z,1005.27
2018-07-16T08:01:03.261Z,1005.24
2018-07-16T08:02:03.243Z,1005.22
2018-07-16T08:03:56.384Z,1005.18
2018-07-16T08:04:56.327Z,1005.21
2018-07-16T08:06:49.288Z,1005.19
2018-07-16T08:07:49.236Z,1005.20
2018-07-16T08:09:42.262Z,1005.17
2018-07-16T08:10:42.211Z,1005.20
2018-07-16T08:12:35.037Z,1005.15
2018-07-16T08:13:35.081Z,1005.15
2018-07-16T08:15:28.015Z,1005.12
2018-07-16T08:16:27.974Z,1005.11
2018-07-16T08:18:20.985Z,1005.12
2018-07-16T08:19:20.940Z,1005.11
2018-07-16T08:21:13.800Z,1005.11
2018-07-16T08:22:13.755Z,1005.11
2018-07-16T08:24:06.759Z,1005.11
2018-07-16T08:25:06.700Z,1005.09
2018-07-16T08:26:59.740Z,1005.10
2018-07-16T08:27:59.764Z,1005.11
2018-07-16T08:29:52.929Z,1005.15
2018-07-16T08:30:52.804Z,1005.11
2018-07-16T08:32:45.798Z,1005.11
2018-07-16T08:33:45.903Z,1005.13
2018-07-16T08:35:38.785Z,1005.14
2018-07-16T08:36:38.729Z,1005.13
2018-07-16T08:38:31.571Z,1005.11
2018-07-16T08:39:31.515Z,1005.10
2018-07-16T08:41:24.524Z,1005.13
2018-07-16T08:42:24.486Z,1005.16
2018-07-16T08:44:17.515Z,1005.13
2018-07-16T08:45:17.469Z,1005.15
2018-07-16T08:47:10.691Z,1005.12
2018-07-16T08:48:10.575Z,1005.15
2018-07-16T08:50:03.569Z,1005.13
2018-07-16T08:51:03.537Z,1005.14
2018-07-16T08:52:56.875Z,1005.16
2018-07-16T08:53:56.818Z,1005.08
2018-07-16T08:55:49.810Z,1005.11
2018-07-16T08:56:49.770Z,1005.13
2018-07-16T08:58:42.793Z,1005.15
2018-07-16T08:59:42.730Z,1005.14
2018-07-16T09:01:35.586Z,1005.16
2018-07-16T09:02:35.544Z,1005.17
2018-07-16T09:04:28.530Z,1005.15
2018-07-16T09:05:28.504Z,1005.19
2018-07-16T09:07:21.516Z,1005.20
2018-07-16T09:08:21.463Z,1005.22
2018-07-16T09:10:14.290Z,1005.23
2018-07-16T09:11:14.312Z,1005.19
2018-07-16T09:13:07.329Z,1005.21
2018-07-16T09:14:07.234Z,1005.16
2018-07-16T09:16:00.230Z,1005.13
2018-07-16T09:17:00.294Z,1005.15
2018-07-16T09:18:53.456Z,1005.09
2018-07-16T09:19:53.309Z,1005.09
2018-07-16T09:21:46.155Z,1005.10
2018-07-16T09:22:46.107Z,1005.06
2018-07-16T09:24:39.111Z,1005.06
2018-07-16T09:25:39.166Z,1005.03
2018-07-16T09:27:32.236Z,1005.04
2018-07-16T09:28:32.191Z,1005.00
2018-07-16T09:30:25.222Z,1005.04
2018-07-16T09:31:25.160Z,1005.00
2018-07-16T09:33:18.161Z,1005.05
2018-07-16T09:34:18.131Z,1005.08
2018-07-16T09:36:11.232Z,1005.06
2018-07-16T09:37:11.186Z,1005.06
2018-07-16T09:39:05.189Z,1005.07
2018-07-16T09:40:05.140Z,1005.07
2018-07-16T09:41:58.589Z,1005.03
2018-07-16T09:42:58.242Z,1004.97
2018-07-16T09:44:51.253Z,1005.00
2018-07-16T09:45:51.207Z,1005.01
2018-07-16T09:47:44.049Z,1004.98
2018-07-16T09:48:44.015Z,1005.01
2018-07-16T09:50:37.223Z,1005.00
2018-07-16T09:51:37.132Z,1005.00
2018-07-16T09:53:29.969Z,1005.01
2018-07-16T09:54:29.939Z,1005.01
2018-07-16T09:56:22.911Z,1004.99
2018-07-16T09:57:22.884Z,1004.93
2018-07-16T09:59:16.059Z,1004.96
2018-07-16T10:00:16.003Z,1005.00
2018-07-16T10:02:09.020Z,1005.33
2018-07-16T10:03:08.956Z,1005.40
2018-07-16T10:05:01.980Z,1005.54
2018-07-16T10:06:01.933Z,1005.64
2018-07-16T10:07:54.948Z,1005.58
2018-07-16T10:08:55.030Z,1005.64
2018-07-16T10:10:47.960Z,1005.57
2018-07-16T10:11:47.918Z,1005.58
2018-07-16T10:13:41.275Z,1005.56
2018-07-16T10:14:41.225Z,1005.57
2018-07-16T10:16:34.242Z,1005.55
2018-07-16T10:17:34.207Z,1005.60
2018-07-16T10:19:27.423Z,1005.56
2018-07-16T10:20:27.423Z,1005.49
2018-07-16T10:22:20.424Z,1005.58
2018-07-16T10:23:20.449Z,1005.56
2018-07-16T10:25:13.589Z,1005.50
2018-07-16T10:26:13.504Z,1005.48
2018-07-16T10:28:06.640Z,1005.62
2018-07-16T10:29:06.626Z,1005.67
2018-07-16T10:30:59.803Z,1005.71
2018-07-16T10:31:59.768Z,1005.56
2018-07-16T10:33:53.159Z,1005.65
2018-07-16T10:34:53.094Z,1005.58
2018-07-16T10:36:46.120Z,1005.46
2018-07-16T10:37:46.105Z,1005.46
2018-07-16T10:39:39.124Z,1005.61
2018-07-16T10:40:39.094Z,1005.37
2018-07-16T10:42:32.210Z,1005.27
2018-07-16T10:43:32.206Z,1005.31
2018-07-16T10:45:25.226Z,1005.54
2018-07-16T10:46:25.200Z,1005.64
2018-07-16T10:48:18.214Z,1005.38
2018-07-16T10:49:18.195Z,1005.15
2018-07-16T10:51:11.203Z,1005.40
2018-07-16T10:52:11.192Z,1005.49
2018-07-16T10:54:04.199Z,1005.27
2018-07-16T10:55:04.225Z,1005.45
2018-07-16T10:56:57.329Z,1005.34
2018-07-16T10:57:57.314Z,1005.36
2018-07-16T10:59:50.345Z,1005.36
2018-07-16T11:00:50.315Z,1005.51
2018-07-16T11:02:43.156Z,1005.27
2018-07-16T11:03:43.150Z,1005.42
2018-07-16T11:05:36.175Z,1005.08
2018-07-16T11:06:36.066Z,1005.20
2018-07-16T11:08:29.071Z,1004.93
2018-07-16T11:09:29.060Z,1004.87
2018-07-16T11:11:21.939Z,1004.69
2018-07-16T11:12:21.932Z,1004.95
2018-07-16T11:14:15.063Z,1005.03
2018-07-16T11:15:15.031Z,1004.85
2018-07-16T11:17:08.063Z,1005.30
2018-07-16T11:18:08.027Z,1005.04
2018-07-16T11:20:01.210Z,1004.93
2018-07-16T11:21:01.257Z,1004.93
2018-07-16T11:22:54.206Z,1004.92
2018-07-16T11:23:54.196Z,1005.07
2018-07-16T11:25:48.218Z,1005.15
2018-07-16T11:26:48.181Z,1004.87
2018-07-16T11:28:41.201Z,1005.00
2018-07-16T11:29:41.185Z,1005.08
2018-07-16T11:31:34.212Z,1004.85
2018-07-16T11:32:34.184Z,1004.84
2018-07-16T11:34:27.317Z,1005.00
2018-07-16T11:35:27.324Z,1005.08
2018-07-16T11:37:20.325Z,1005.00
2018-07-16T11:38:20.276Z,1004.85
2018-07-16T11:40:13.303Z,1004.55
2018-07-16T11:41:13.292Z,1004.94
2018-07-16T11:43:06.347Z,1004.96
2018-07-16T11:44:06.314Z,1004.95
2018-07-16T11:45:59.421Z,1004.48
2018-07-16T11:46:59.324Z,1004.37
2018-07-16T11:48:52.184Z,1004.34
2018-07-16T11:49:52.171Z,1004.50
2018-07-16T11:51:45.033Z,1004.82
2018-07-16T11:52:45.008Z,1004.97
2018-07-16T11:54:38.032Z,1004.95
2018-07-16T11:55:37.997Z,1004.71
2018-07-16T11:57:31.028Z,1004.29
2018-07-16T11:58:30.987Z,1004.52
2018-07-16T12:00:23.852Z,1004.60
2018-07-16T12:01:23.839Z,1004.71
2018-07-16T12:03:16.852Z,1004.39
2018-07-16T12:04:16.820Z,1004.17
2018-07-16T12:06:09.857Z,1003.43
2018-07-16T12:07:09.814Z,1004.68
2018-07-16T12:09:02.843Z,1004.67
2018-07-16T12:10:02.803Z,1004.65
2018-07-16T12:11:55.812Z,1004.78
2018-07-16T12:12:55.801Z,1004.76
2018-07-16T12:14:48.949Z,1004.55
2018-07-16T12:15:48.912Z,1004.32
2018-07-16T12:17:41.914Z,1004.27
2018-07-16T12:18:41.898Z,1004.39
2018-07-16T12:20:34.974Z,1004.48
2018-07-16T12:21:34.898Z,1004.65
2018-07-16T12:23:27.927Z,1004.56
2018-07-16T12:24:27.909Z,1004.56
2018-07-16T12:26:20.749Z,1004.57
2018-07-16T12:27:20.722Z,1004.66
2018-07-16T12:29:14.115Z,1004.53
2018-07-16T12:30:14.014Z,1004.48
2018-07-16T12:32:07.021Z,1003.98
2018-07-16T12:33:07.006Z,1003.85
2018-07-16T12:35:00.030Z,1004.16
2018-07-16T12:36:00.002Z,1003.99
2018-07-16T12:37:53.030Z,1004.23
2018-07-16T12:38:53.014Z,1004.10
2018-07-16T12:40:46.054Z,1003.85
2018-07-16T12:41:46.037Z,1003.99
2018-07-16T12:43:39.171Z,1004.23
2018-07-16T12:44:39.133Z,1004.21
2018-07-16T12:46:32.145Z,1004.21
2018-07-16T12:47:32.115Z,1004.18
2018-07-16T12:49:25.388Z,1004.26
2018-07-16T12:50:25.261Z,1004.21
2018-07-16T12:52:18.289Z,1004.07
2018-07-16T12:53:18.255Z,1004.00
2018-07-16T12:55:11.314Z,1004.07
2018-07-16T12:56:11.292Z,1003.86
2018-07-16T12:58:04.315Z,1004.06
2018-07-16T12:59:04.279Z,1004.24
2018-07-16T13:00:57.285Z,1004.06
2018-07-16T13:01:57.276Z,1004.06
2018-07-16T13:03:50.455Z,1004.15
2018-07-16T13:04:50.417Z,1003.71
2018-07-16T13:06:43.443Z,1003.99
2018-07-16T13:07:43.400Z,1003.85
2018-07-16T13:09:36.464Z,1003.60
2018-07-16T13:10:36.395Z,1002.62
2018-07-16T13:12:30.340Z,1002.45
2018-07-16T13:13:30.253Z,1003.74
2018-07-16T13:15:23.264Z,1003.82
2018-07-16T13:16:23.236Z,1003.86
2018-07-16T13:18:16.265Z,1003.80
2018-07-16T13:19:16.222Z,1003.77
2018-07-16T13:21:09.265Z,1003.86
2018-07-16T13:22:09.229Z,1003.87
2018-07-16T13:24:02.294Z,1003.80
2018-07-16T13:25:02.245Z,1003.66
2018-07-16T13:26:55.446Z,1003.79
2018-07-16T13:27:55.362Z,1003.70
2018-07-16T13:29:48.372Z,1003.72
2018-07-16T13:30:48.350Z,1003.69
2018-07-16T13:32:41.500Z,1003.77
2018-07-16T13:33:41.454Z,1003.67
2018-07-16T13:35:35.465Z,1003.56
2018-07-16T13:36:35.439Z,1003.62
2018-07-16T13:38:28.825Z,1003.40
2018-07-16T13:39:28.777Z,1003.67
2018-07-16T13:41:21.607Z,1003.46
2018-07-16T13:42:21.586Z,1003.54
2018-07-16T13:44:14.626Z,1003.27
2018-07-16T13:45:14.585Z,1003.65
2018-07-16T13:47:07.682Z,1003.37
2018-07-16T13:48:07.538Z,1003.49
2018-07-16T13:50:00.594Z,1003.55
2018-07-16T13:51:00.560Z,1003.63
2018-07-16T13:52:53.601Z,1003.61
2018-07-16T13:53:53.567Z,1003.61
2018-07-16T13:55:46.505Z,1003.47
2018-07-16T13:56:46.409Z,1003.43
2018-07-16T13:58:39.407Z,1003.44
2018-07-16T13:59:39.385Z,1003.51
2018-07-16T14:01:32.421Z,1003.66
2018-07-16T14:02:32.397Z,1003.65
2018-07-16T14:04:25.285Z,1003.40
2018-07-16T14:05:25.240Z,1003.45
2018-07-16T14:07:18.271Z,1003.51
2018-07-16T14:08:18.226Z,1003.39
2018-07-16T14:10:11.269Z,1003.30
2018-07-16T14:11:11.216Z,1003.33
2018-07-16T14:13:04.306Z,1003.37
2018-07-16T14:14:04.277Z,1003.43
2018-07-16T14:15:57.316Z,1003.47
2018-07-16T14:16:57.358Z,1003.54
2018-07-16T14:18:50.514Z,1003.53
2018-07-16T14:19:50.421Z,1003.30
2018-07-16T14:21:43.483Z,1003.48
2018-07-16T14:22:43.430Z,1003.49
2018-07-16T14:24:36.562Z,1003.29
2018-07-16T14:25:36.536Z,1003.29
2018-07-16T14:27:29.584Z,1003.29
2018-07-16T14:28:29.527Z,1003.26
2018-07-16T14:30:22.587Z,1003.46
2018-07-16T14:31:22.548Z,1003.38
2018-07-16T14:33:15.653Z,1003.39
2018-07-16T14:34:15.613Z,1003.43
2018-07-16T14:36:08.642Z,1003.40
2018-07-16T14:37:08.618Z,1003.40
2018-07-16T14:39:01.668Z,1003.44
2018-07-16T14:40:01.688Z,1003.39
2018-07-16T14:41:54.533Z,1003.38
2018-07-16T14:42:54.469Z,1003.28
2018-07-16T14:44:47.555Z,1003.09
2018-07-16T14:45:47.503Z,1003.18
2018-07-16T14:47:40.706Z,1003.20
2018-07-16T14:48:40.602Z,1003.29
2018-07-16T14:50:33.727Z,1003.12
2018-07-16T14:51:33.603Z,1003.21
2018-07-16T14:53:26.885Z,1003.18
2018-07-16T14:54:26.750Z,1003.15
2018-07-16T14:56:20.110Z,1003.26
2018-07-16T14:57:20.077Z,1003.16
2018-07-16T14:59:12.930Z,1003.08
2018-07-16T15:00:12.907Z,1003.10
2018-07-16T15:02:05.975Z,1003.10
2018-07-16T15:03:05.935Z,1003.04
2018-07-16T15:04:58.803Z,1003.21
2018-07-16T15:05:58.780Z,1003.24
2018-07-16T15:07:51.696Z,1003.23
2018-07-16T15:08:51.624Z,1003.18
2018-07-16T15:10:44.639Z,1003.17
2018-07-16T15:11:44.622Z,1003.08
2018-07-16T15:13:37.650Z,1002.94
2018-07-16T15:14:37.685Z,1002.79
2018-07-16T15:16:30.755Z,1002.81
2018-07-16T15:17:30.735Z,1002.82
2018-07-16T15:19:23.806Z,1002.84
2018-07-16T15:20:23.989Z,1002.88
2018-07-16T15:22:17.071Z,1002.91
2018-07-16T15:23:16.933Z,1002.96
2018-07-16T15:25:09.984Z,1003.19
2018-07-16T15:26:09.951Z,1003.24
2018-07-16T15:28:02.982Z,1003.30
2018-07-16T15:29:02.940Z,1003.37
2018-07-16T15:30:55.907Z,1003.28
2018-07-16T15:31:55.757Z,1003.37
2018-07-16T15:33:48.780Z,1003.34
2018-07-16T15:34:48.744Z,1003.33
2018-07-16T15:36:41.769Z,1003.03
2018-07-16T15:37:41.744Z,1003.08
2018-07-16T15:39:34.624Z,1003.18
2018-07-16T15:40:34.570Z,1003.21
2018-07-16T15:42:27.411Z,1003.13
2018-07-16T15:43:27.391Z,1003.08
2018-07-16T15:45:20.438Z,1003.09
2018-07-16T15:46:20.378Z,1003.13
2018-07-16T15:48:13.282Z,1003.01
2018-07-16T15:49:13.228Z,1002.95
2018-07-16T15:51:06.291Z,1003.22
2018-07-16T15:52:06.241Z,1002.98
2018-07-16T15:53:59.245Z,1002.90
2018-07-16T15:54:59.219Z,1003.17
2018-07-16T15:56:52.406Z,1002.90
2018-07-16T15:57:52.354Z,1002.96
2018-07-16T15:59:45.203Z,1003.11
2018-07-16T16:00:45.159Z,1003.03
2018-07-16T16:02:38.170Z,1003.03
2018-07-16T16:03:38.170Z,1002.85
2018-07-16T16:05:30.989Z,1002.95
2018-07-16T16:06:30.964Z,1002.91
2018-07-16T16:08:23.953Z,1002.87
2018-07-16T16:09:23.964Z,1002.89
2018-07-16T16:11:16.800Z,1003.06
2018-07-16T16:12:16.791Z,1003.01
2018-07-16T16:14:09.767Z,1002.97
2018-07-16T16:15:09.750Z,1002.93
2018-07-16T16:17:02.839Z,1002.98
2018-07-16T16:18:02.794Z,1002.95
2018-07-16T16:19:55.864Z,1003.01
2018-07-16T16:20:55.784Z,1002.97
2018-07-16T16:22:48.909Z,1002.91
2018-07-16T16:23:48.839Z,1002.97
2018-07-16T16:25:41.850Z,1002.92
2018-07-16T16:26:41.829Z,1002.96
2018-07-16T16:28:34.856Z,1003.10
2018-07-16T16:29:34.821Z,1003.05
2018-07-16T16:31:27.675Z,1003.00
2018-07-16T16:32:27.657Z,1003.03
2018-07-16T16:34:20.665Z,1002.89
2018-07-16T16:35:20.634Z,1002.87
2018-07-16T16:37:13.663Z,1002.98
2018-07-16T16:38:13.626Z,1003.05
2018-07-16T16:40:06.950Z,1002.97
2018-07-16T16:41:06.932Z,1003.08
2018-07-16T16:43:00.033Z,1003.00
2018-07-16T16:43:59.904Z,1002.93
2018-07-16T16:45:52.861Z,1002.93
2018-07-16T16:46:52.816Z,1002.92
2018-07-16T16:48:45.866Z,1002.90
2018-07-16T16:49:45.821Z,1002.91
2018-07-16T16:51:38.825Z,1002.91
2018-07-16T16:52:38.813Z,1002.96
2018-07-16T16:54:31.883Z,1002.85
2018-07-16T16:55:31.869Z,1002.80
2018-07-16T16:57:24.849Z,1002.81
2018-07-16T16:58:24.846Z,1002.90
2018-07-16T17:00:18.042Z,1002.81
2018-07-16T17:01:17.954Z,1002.88
2018-07-16T17:03:11.045Z,1002.76
2018-07-16T17:04:11.027Z,1002.85
2018-07-16T17:06:04.295Z,1002.75
2018-07-16T17:07:04.156Z,1002.73
2018-07-16T17:08:57.252Z,1002.74
2018-07-16T17:09:57.238Z,1002.73
2018-07-16T17:11:50.282Z,1002.73
2018-07-16T17:12:50.209Z,1002.77
2018-07-16T17:14:43.194Z,1002.78
2018-07-16T17:15:43.025Z,1002.77
2018-07-16T17:17:36.042Z,1002.74
2018-07-16T17:18:36.013Z,1002.71
2018-07-16T17:20:29.033Z,1002.76
2018-07-16T17:21:29.009Z,1002.76
2018-07-16T17:23:21.975Z,1002.78
2018-07-16T17:24:21.803Z,1002.82
2018-07-16T17:26:14.831Z,1002.81